aviador You're here:

KGXY Decoded Metar

GREELEY/WELD in CO, USA
Report Time2017-04-25 06:23:00
UTC Time2017-04-25 06:34:23
Flight Rules vfr VFR
Wind310° at 15 Gusting to 22 kt
W.Decomp.*RWY 27: 13.1 kt HW 7.3 kt RCW
RWY 34: 11.3 kt HW 9.8 kt LCW
W.Rank310° ranks 7
Current wind is above 310° avg. (7.6)
Visibility9999 m
Phenomena:Vicinity thunderstorm
Clouds:Overcast 036 Hf
Expected CloudBase > 1,200 ft AGL from Temp-Dew spread
Ceiling3,600 ft
Temp07°C (ISA +1)
Dew Point04°C (81% RH)
AAT0.3°C
QNH1002 hPa
Density Alt5,305 ft
Elevation4,659 ft
Report Wrong Elevation
Raw Report
KGXY 250623Z AUTO 31015G22KT 10SM VCTS OVC036 07/04 A2960 RMK AO2
PK WND 33029/0602 LTG DSNT ALQDS TSB0557E05B17=

Extra information for KGXY:More info

Metar Taf Metar & Taf Last 4 Metars F.Rules Stats Wind Profile Meteogram Temp Stats Airport Information Weather charts Add Link Nearby VenuesMetar ALERT Operation Metar Decoded Social comments

AIRNAV info for KGXY